createdAt,value
2022-09-17T00:02:44.865Z,99.90
2022-09-17T00:07:46.980Z,99.90
2022-09-17T00:12:49.097Z,99.90
2022-09-17T00:17:55.496Z,99.90
2022-09-17T00:22:57.352Z,99.90
2022-09-17T00:27:59.245Z,99.90
2022-09-17T00:33:01.090Z,99.90
2022-09-17T00:38:03.031Z,99.90
2022-09-17T00:43:04.903Z,99.90
2022-09-17T00:48:07.125Z,99.90
2022-09-17T00:53:21.379Z,99.90
2022-09-17T00:58:24.382Z,99.90
2022-09-17T01:03:26.664Z,99.90
2022-09-17T01:09:13.422Z,99.90
2022-09-17T01:14:33.773Z,99.90
2022-09-17T01:20:00.449Z,99.90
2022-09-17T01:25:41.267Z,99.90
2022-09-17T01:30:52.125Z,99.90
2022-09-17T01:36:06.647Z,99.90
2022-09-17T01:41:14.684Z,99.90
2022-09-17T01:46:24.873Z,99.90
2022-09-17T01:51:30.112Z,99.90
2022-09-17T01:56:48.265Z,99.90
2022-09-17T02:01:53.372Z,99.90
2022-09-17T02:07:06.085Z,99.90
2022-09-17T02:12:10.965Z,99.90
2022-09-17T02:17:20.864Z,99.90
2022-09-17T02:22:56.823Z,99.90
2022-09-17T02:28:03.563Z,99.90
2022-09-17T02:33:09.756Z,99.90
2022-09-17T02:38:11.582Z,99.90
2022-09-17T02:43:28.940Z,99.90
2022-09-17T02:48:42.619Z,99.90
2022-09-17T02:53:54.023Z,99.90
2022-09-17T02:59:20.461Z,99.90
2022-09-17T03:04:23.672Z,99.90
2022-09-17T03:09:25.944Z,99.90
2022-09-17T03:14:28.995Z,99.90
2022-09-17T03:19:30.809Z,99.90
2022-09-17T03:24:32.598Z,99.90
2022-09-17T03:29:34.423Z,99.90
2022-09-17T03:34:36.330Z,99.90
2022-09-17T03:39:38.474Z,99.90
2022-09-17T03:44:44.730Z,99.90
2022-09-17T03:49:47.233Z,99.90
2022-09-17T03:54:49.295Z,99.90
2022-09-17T03:59:51.312Z,99.90
2022-09-17T04:04:54.131Z,99.90
2022-09-17T04:09:56.009Z,99.90
2022-09-17T04:14:57.966Z,99.90
2022-09-17T04:19:59.927Z,99.90
2022-09-17T04:25:01.817Z,99.90
2022-09-17T04:30:03.888Z,99.90
2022-09-17T04:35:06.290Z,99.90
2022-09-17T04:40:09.103Z,99.90
2022-09-17T04:45:10.952Z,99.90
2022-09-17T04:50:12.968Z,99.90
2022-09-17T04:55:15.445Z,99.90
2022-09-17T05:00:18.466Z,99.90
2022-09-17T05:05:21.431Z,99.90
2022-09-17T05:10:23.428Z,99.90
2022-09-17T05:15:26.470Z,99.90
2022-09-17T05:20:28.301Z,99.90
2022-09-17T05:25:30.965Z,99.90
2022-09-17T05:30:33.182Z,99.90
2022-09-17T05:35:37.982Z,99.90
2022-09-17T05:40:39.846Z,99.90
2022-09-17T05:45:41.808Z,99.90
2022-09-17T05:50:43.672Z,99.90
2022-09-17T05:55:45.491Z,99.90
2022-09-17T06:07:40.591Z,99.90
2022-09-17T06:12:42.467Z,99.90
2022-09-17T06:17:44.332Z,99.90
2022-09-17T06:22:46.258Z,99.90
2022-09-17T06:27:48.054Z,99.90
2022-09-17T06:32:50.125Z,99.90
2022-09-17T06:37:51.983Z,99.90
2022-09-17T06:42:59.234Z,99.90
2022-09-17T06:48:05.137Z,99.90
2022-09-17T06:53:06.917Z,99.90
2022-09-17T06:58:08.730Z,99.90
2022-09-17T07:03:10.674Z,99.90
2022-09-17T07:08:12.727Z,99.90
2022-09-17T07:13:14.642Z,99.90
2022-09-17T07:18:16.612Z,99.90
2022-09-17T07:23:18.380Z,99.90
2022-09-17T07:28:20.945Z,99.90
2022-09-17T07:33:26.387Z,99.90
2022-09-17T07:38:29.310Z,99.90
2022-09-17T07:43:33.265Z,99.90
2022-09-17T07:48:35.109Z,99.90
2022-09-17T07:53:36.909Z,99.90
2022-09-17T07:58:39.005Z,99.90
2022-09-17T08:03:40.881Z,99.90
2022-09-17T08:08:42.675Z,99.90
2022-09-17T08:13:47.787Z,99.90
2022-09-17T08:18:55.060Z,99.90
2022-09-17T08:23:57.579Z,99.90
2022-09-17T08:28:59.560Z,99.90
2022-09-17T08:34:01.494Z,99.30
2022-09-17T08:39:03.682Z,98.60
2022-09-17T08:44:08.534Z,99.70
2022-09-17T08:49:29.458Z,97.60
2022-09-17T08:54:38.958Z,97.20
2022-09-17T08:59:55.377Z,96.90
2022-09-17T09:05:16.812Z,96.00
2022-09-17T09:10:23.774Z,96.60
2022-09-17T09:15:46.415Z,95.90
2022-09-17T09:20:50.213Z,97.50
2022-09-17T09:26:00.451Z,96.70
2022-09-17T09:31:35.886Z,96.40
2022-09-17T09:36:38.609Z,95.70
2022-09-17T09:41:48.897Z,95.80
2022-09-17T09:47:24.623Z,93.60
2022-09-17T09:53:05.271Z,92.90
2022-09-17T09:58:36.976Z,92.70
2022-09-17T10:03:41.146Z,93.30
2022-09-17T10:09:02.841Z,94.20
2022-09-17T10:14:26.106Z,93.80
2022-09-17T10:19:27.883Z,92.70
2022-09-17T10:24:34.700Z,93.20
2022-09-17T10:29:37.001Z,94.30
2022-09-17T10:34:38.886Z,92.30
2022-09-17T10:39:45.062Z,93.10
2022-09-17T10:44:52.448Z,92.30
2022-09-17T10:49:57.667Z,91.60
2022-09-17T10:55:20.698Z,90.00
2022-09-17T11:00:23.481Z,90.10
2022-09-17T11:05:38.557Z,87.50
2022-09-17T11:10:51.230Z,88.10
2022-09-17T11:16:14.426Z,84.10
2022-09-17T11:21:31.288Z,82.50
2022-09-17T11:26:48.845Z,82.10
2022-09-17T11:32:28.563Z,82.40
2022-09-17T11:37:38.178Z,83.00
2022-09-17T11:42:47.769Z,83.20
2022-09-17T11:47:53.485Z,85.70
2022-09-17T11:53:26.438Z,86.30
2022-09-17T11:58:43.101Z,86.50
2022-09-17T12:03:59.308Z,86.80
2022-09-17T12:09:16.003Z,86.00
2022-09-17T12:14:29.178Z,88.90
2022-09-17T12:19:41.997Z,91.00
2022-09-17T12:24:43.847Z,92.50
2022-09-17T12:30:04.617Z,92.10
2022-09-17T12:36:04.636Z,91.80
2022-09-17T12:41:24.053Z,92.30
2022-09-17T12:46:47.064Z,94.50
2022-09-17T12:52:00.724Z,94.60
2022-09-17T12:57:05.522Z,95.40
2022-09-17T13:02:26.528Z,96.10
2022-09-17T13:07:57.912Z,96.80
2022-09-17T13:13:27.076Z,97.70
2022-09-17T13:18:36.146Z,95.80
2022-09-17T13:23:49.446Z,95.20
2022-09-17T13:28:52.625Z,92.40
2022-09-17T13:34:02.037Z,92.00
2022-09-17T13:39:05.822Z,93.00
2022-09-17T13:44:09.364Z,92.80
2022-09-17T13:49:19.538Z,93.60
2022-09-17T13:54:22.591Z,93.00
2022-09-17T13:59:27.750Z,93.00
2022-09-17T14:04:32.588Z,93.60
2022-09-17T14:09:46.277Z,94.30
2022-09-17T14:14:51.152Z,94.60
2022-09-17T14:19:55.523Z,94.50
2022-09-17T14:24:58.418Z,95.50
2022-09-17T14:30:23.177Z,95.80
2022-09-17T14:35:47.402Z,96.20
2022-09-17T14:41:09.088Z,96.60
2022-09-17T14:46:21.922Z,97.00
2022-09-17T14:51:26.326Z,96.70
2022-09-17T14:56:28.356Z,95.80
2022-09-17T15:01:31.336Z,96.40
2022-09-17T15:06:33.389Z,96.20
2022-09-17T15:11:36.888Z,96.40
2022-09-17T15:16:47.496Z,96.40
2022-09-17T15:21:50.177Z,96.80
2022-09-17T15:26:53.689Z,96.80
2022-09-17T15:31:55.617Z,97.20
2022-09-17T15:37:23.797Z,97.60
2022-09-17T15:42:30.599Z,97.50
2022-09-17T15:47:38.941Z,98.20
2022-09-17T15:52:40.879Z,97.90
2022-09-17T15:57:44.406Z,97.00
2022-09-17T16:02:46.370Z,96.60
2022-09-17T16:07:48.604Z,96.30
2022-09-17T16:12:50.414Z,96.10
2022-09-17T16:17:53.001Z,96.80
2022-09-17T16:22:55.833Z,97.00
2022-09-17T16:27:59.465Z,98.00
2022-09-17T16:33:04.074Z,97.90
2022-09-17T16:38:06.402Z,98.40
2022-09-17T16:43:08.844Z,99.40
2022-09-17T16:48:10.821Z,99.90
2022-09-17T16:53:12.949Z,99.90
2022-09-17T16:58:14.934Z,99.90
2022-09-17T17:03:16.915Z,99.90
2022-09-17T17:08:19.116Z,99.90
2022-09-17T17:13:21.053Z,99.90
2022-09-17T17:18:23.040Z,99.90
2022-09-17T17:23:24.968Z,99.90
2022-09-17T17:28:27.093Z,99.90
2022-09-17T17:33:29.061Z,99.90
2022-09-17T17:38:30.913Z,99.90
2022-09-17T17:43:35.217Z,99.90
2022-09-17T17:48:37.371Z,99.90
2022-09-17T17:53:42.145Z,99.90
2022-09-17T17:58:44.138Z,99.90
2022-09-17T18:03:46.408Z,99.90
2022-09-17T18:08:48.215Z,99.90
2022-09-17T18:13:56.986Z,99.90
2022-09-17T18:18:58.882Z,99.90
2022-09-17T18:24:00.756Z,99.90
2022-09-17T18:29:07.563Z,99.90
2022-09-17T18:34:12.318Z,99.90
2022-09-17T18:44:37.358Z,99.90
2022-09-17T18:49:39.145Z,99.90
2022-09-17T18:54:40.963Z,99.90
2022-09-17T18:59:43.832Z,99.90
2022-09-17T19:04:52.978Z,99.90
2022-09-17T19:09:54.801Z,99.90
2022-09-17T19:14:56.602Z,99.90
2022-09-17T19:19:58.385Z,99.90
2022-09-17T19:25:00.174Z,99.90
2022-09-17T19:30:02.319Z,99.90
2022-09-17T19:35:05.260Z,99.90
2022-09-17T19:40:08.687Z,99.90
2022-09-17T19:45:10.869Z,99.90
2022-09-17T19:50:12.827Z,99.90
2022-09-17T19:55:14.699Z,99.90
2022-09-17T20:00:16.680Z,99.90
2022-09-17T20:05:18.509Z,99.90
2022-09-17T20:10:20.319Z,99.90
2022-09-17T20:15:22.505Z,99.90
2022-09-17T20:20:28.345Z,99.90
2022-09-17T20:25:30.180Z,99.90
2022-09-17T20:30:34.127Z,99.90
2022-09-17T20:35:36.430Z,99.90
2022-09-17T20:40:38.527Z,99.90
2022-09-17T20:45:55.660Z,99.90
2022-09-17T20:50:58.872Z,99.90
2022-09-17T20:56:03.393Z,99.90
2022-09-17T21:01:13.601Z,99.90
2022-09-17T21:06:26.712Z,99.90
2022-09-17T21:11:29.938Z,99.90
2022-09-17T21:16:31.946Z,99.90
2022-09-17T21:21:34.541Z,99.90
2022-09-17T21:26:36.865Z,99.90
2022-09-17T21:31:39.037Z,99.90
2022-09-17T21:36:43.331Z,99.90
2022-09-17T21:41:46.037Z,99.90
2022-09-17T21:46:49.652Z,99.90
2022-09-17T21:51:51.770Z,99.90
2022-09-17T21:56:53.652Z,99.90
2022-09-17T22:01:57.582Z,99.90
2022-09-17T22:07:00.383Z,99.90
2022-09-17T22:12:02.840Z,99.90
2022-09-17T22:17:04.665Z,99.90
2022-09-17T22:22:06.544Z,99.90
2022-09-17T22:27:08.361Z,99.90
2022-09-17T22:32:10.196Z,99.90
2022-09-17T22:37:12.012Z,99.90
2022-09-17T22:42:13.995Z,99.90
2022-09-17T22:47:15.832Z,99.90
2022-09-17T22:52:17.705Z,99.90
2022-09-17T22:57:19.509Z,99.90
2022-09-17T23:02:21.413Z,99.90
2022-09-17T23:07:23.478Z,99.90
2022-09-17T23:12:25.288Z,99.90
2022-09-17T23:17:29.430Z,99.90
2022-09-17T23:22:31.419Z,99.90
2022-09-17T23:27:33.265Z,99.90
2022-09-17T23:32:35.319Z,99.90
2022-09-17T23:37:37.248Z,99.90
2022-09-17T23:42:39.226Z,99.90
2022-09-17T23:47:41.093Z,99.90
2022-09-17T23:52:43.262Z,99.90
2022-09-17T23:57:45.109Z,99.90
